createdAt,value
2022-08-20T00:01:33.100Z,20.80
2022-08-20T00:03:38.062Z,20.80
2022-08-20T00:05:45.512Z,20.70
2022-08-20T00:07:48.376Z,20.70
2022-08-20T00:09:51.443Z,20.70
2022-08-20T00:11:54.570Z,20.70
2022-08-20T00:14:02.680Z,20.70
2022-08-20T00:16:05.944Z,20.70
2022-08-20T00:18:10.456Z,20.60
2022-08-20T00:20:17.311Z,20.60
2022-08-20T00:22:20.357Z,20.60
2022-08-20T00:24:23.277Z,20.50
2022-08-20T00:26:27.084Z,20.50
2022-08-20T00:28:30.052Z,20.50
2022-08-20T00:30:35.516Z,20.60
2022-08-20T00:32:44.301Z,20.50
2022-08-20T00:34:48.083Z,20.50
2022-08-20T00:36:51.002Z,20.60
2022-08-20T00:38:53.788Z,20.50
2022-08-20T00:41:00.584Z,20.60
2022-08-20T00:43:05.928Z,20.60
2022-08-20T00:45:09.566Z,20.60
2022-08-20T00:47:13.752Z,20.70
2022-08-20T00:49:19.546Z,20.70
2022-08-20T00:51:27.719Z,20.70
2022-08-20T00:53:34.539Z,20.70
2022-08-20T00:55:37.521Z,20.70
2022-08-20T00:57:59.950Z,20.80
2022-08-20T01:00:10.122Z,20.80
2022-08-20T01:02:17.746Z,20.80
2022-08-20T01:04:20.748Z,20.90
2022-08-20T01:06:24.861Z,20.90
2022-08-20T01:08:27.963Z,20.90
2022-08-20T01:10:35.797Z,21.00
2022-08-20T01:12:40.726Z,21.00
2022-08-20T01:14:46.584Z,21.00
2022-08-20T01:16:51.949Z,21.00
2022-08-20T01:18:57.885Z,21.00
2022-08-20T01:21:03.620Z,21.00
2022-08-20T01:23:30.189Z,21.00
2022-08-20T01:25:43.241Z,21.00
2022-08-20T01:27:47.733Z,21.00
2022-08-20T01:29:56.344Z,21.00
2022-08-20T01:32:01.519Z,21.00
2022-08-20T01:34:08.004Z,20.90
2022-08-20T01:36:12.840Z,20.90
2022-08-20T01:38:15.726Z,20.90
2022-08-20T01:40:24.935Z,20.90
2022-08-20T01:42:32.973Z,20.90
2022-08-20T01:44:37.913Z,20.90
2022-08-20T01:46:43.804Z,21.00
2022-08-20T01:48:47.028Z,20.90
2022-08-20T01:50:56.581Z,20.90
2022-08-20T01:53:07.541Z,20.90
2022-08-20T01:55:11.413Z,20.90
2022-08-20T01:57:16.762Z,20.90
2022-08-20T01:59:30.545Z,20.80
2022-08-20T02:01:46.624Z,20.80
2022-08-20T02:03:51.095Z,20.80
2022-08-20T02:05:54.180Z,20.70
2022-08-20T02:07:57.270Z,20.70
2022-08-20T02:10:01.247Z,20.70
2022-08-20T02:12:06.094Z,20.60
2022-08-20T02:14:10.878Z,20.60
2022-08-20T02:16:15.169Z,20.60
2022-08-20T02:18:18.550Z,20.60
2022-08-20T02:20:28.274Z,20.60
2022-08-20T02:22:38.140Z,20.60
2022-08-20T02:24:41.519Z,20.60
2022-08-20T02:26:45.287Z,20.60
2022-08-20T02:28:49.458Z,20.60
2022-08-20T02:30:55.198Z,20.60
2022-08-20T02:33:00.211Z,20.60
2022-08-20T02:35:03.711Z,20.60
2022-08-20T02:37:08.603Z,20.50
2022-08-20T02:39:13.492Z,20.50
2022-08-20T02:41:17.474Z,20.50
2022-08-20T02:43:21.491Z,20.50
2022-08-20T02:45:25.718Z,20.50
2022-08-20T02:47:28.753Z,20.50
2022-08-20T02:49:33.191Z,20.50
2022-08-20T02:51:36.869Z,20.50
2022-08-20T02:53:43.280Z,20.60
2022-08-20T02:55:46.389Z,20.60
2022-08-20T02:57:49.486Z,20.60
2022-08-20T02:59:56.570Z,20.60
2022-08-20T03:02:00.734Z,20.60
2022-08-20T03:04:04.901Z,20.70
2022-08-20T03:06:10.662Z,20.70
2022-08-20T03:08:15.313Z,20.70
2022-08-20T03:10:18.682Z,20.70
2022-08-20T03:12:21.667Z,20.70
2022-08-20T03:14:25.327Z,20.70
2022-08-20T03:16:28.543Z,20.70
2022-08-20T03:18:33.514Z,20.70
2022-08-20T03:20:36.746Z,20.70
2022-08-20T03:22:41.088Z,20.70
2022-08-20T03:24:44.368Z,20.70
2022-08-20T03:26:47.636Z,20.70
2022-08-20T03:28:50.720Z,20.70
2022-08-20T03:30:54.747Z,20.80
2022-08-20T03:32:58.079Z,20.80
2022-08-20T03:35:01.117Z,20.70
2022-08-20T03:37:04.028Z,20.80
2022-08-20T03:39:13.266Z,20.80
2022-08-20T03:41:16.308Z,20.80
2022-08-20T03:43:20.207Z,20.70
2022-08-20T03:45:24.572Z,20.70
2022-08-20T03:47:28.011Z,20.70
2022-08-20T03:49:31.685Z,20.80
2022-08-20T03:51:57.280Z,20.80
2022-08-20T03:53:58.836Z,20.80
2022-08-20T03:56:06.583Z,20.80
2022-08-20T03:58:12.503Z,20.80
2022-08-20T04:00:18.328Z,20.80
2022-08-20T04:02:21.543Z,20.70
2022-08-20T04:04:24.561Z,20.70
2022-08-20T04:06:29.172Z,20.70
2022-08-20T04:08:32.352Z,20.70
2022-08-20T04:10:35.421Z,20.70
2022-08-20T04:12:40.811Z,20.70
2022-08-20T04:14:52.438Z,20.60
2022-08-20T04:16:55.232Z,20.50
2022-08-20T04:19:02.524Z,20.40
2022-08-20T04:21:06.489Z,20.40
2022-08-20T04:23:10.043Z,20.30
2022-08-20T04:25:15.869Z,20.10
2022-08-20T04:27:21.148Z,20.00
2022-08-20T04:29:25.851Z,19.90
2022-08-20T04:31:35.564Z,19.90
2022-08-20T04:33:38.459Z,19.80
2022-08-20T04:35:41.284Z,19.80
2022-08-20T04:37:44.621Z,19.80
2022-08-20T04:40:07.429Z,19.80
2022-08-20T04:42:10.256Z,19.80
2022-08-20T04:44:13.272Z,19.80
2022-08-20T04:46:17.704Z,19.80
2022-08-20T04:48:23.726Z,19.80
2022-08-20T04:50:26.783Z,19.70
2022-08-20T04:52:32.801Z,19.60
2022-08-20T04:54:35.667Z,19.60
2022-08-20T04:56:39.630Z,19.50
2022-08-20T04:58:47.597Z,19.40
2022-08-20T05:00:52.451Z,19.40
2022-08-20T05:02:56.708Z,19.40
2022-08-20T05:04:59.592Z,19.40
2022-08-20T05:07:02.579Z,19.40
2022-08-20T05:09:05.781Z,19.50
2022-08-20T05:11:30.161Z,19.50
2022-08-20T05:13:43.178Z,19.50
2022-08-20T05:15:46.632Z,19.60
2022-08-20T05:17:55.871Z,19.60
2022-08-20T05:20:00.652Z,19.60
2022-08-20T05:22:03.970Z,19.70
2022-08-20T05:24:41.621Z,19.70
2022-08-20T05:26:45.300Z,19.70
2022-08-20T05:28:57.481Z,19.80
2022-08-20T05:31:02.871Z,19.80
2022-08-20T05:33:08.259Z,19.80
2022-08-20T05:35:12.903Z,19.90
2022-08-20T05:37:17.610Z,19.90
2022-08-20T05:39:45.307Z,19.90
2022-08-20T05:42:07.011Z,20.00
2022-08-20T05:44:46.413Z,20.00
2022-08-20T05:47:19.420Z,20.10
2022-08-20T05:49:46.714Z,20.10
2022-08-20T05:51:56.507Z,20.20
2022-08-20T05:56:26.743Z,20.30
2022-08-20T05:58:31.220Z,20.30
2022-08-20T06:00:53.851Z,20.30
2022-08-20T06:03:19.413Z,20.30
2022-08-20T06:05:51.315Z,20.30
2022-08-20T06:08:05.747Z,20.30
2022-08-20T06:10:11.488Z,20.30
2022-08-20T06:12:19.340Z,20.30
2022-08-20T06:14:34.352Z,20.30
2022-08-20T06:17:09.935Z,20.30
2022-08-20T06:19:26.568Z,20.30
2022-08-20T06:22:00.898Z,20.40
2022-08-20T06:27:17.039Z,20.40
2022-08-20T06:29:26.378Z,20.50
2022-08-20T06:31:29.916Z,20.50
2022-08-20T06:33:45.427Z,20.50
2022-08-20T06:35:50.866Z,20.60
2022-08-20T06:38:01.108Z,20.70
2022-08-20T06:40:12.673Z,20.80
2022-08-20T06:42:31.629Z,20.80
2022-08-20T06:45:00.646Z,20.90
2022-08-20T06:47:20.583Z,21.00
2022-08-20T06:49:54.088Z,21.20
2022-08-20T06:52:20.074Z,21.30
2022-08-20T06:54:40.921Z,21.50
2022-08-20T06:56:58.961Z,21.70
2022-08-20T06:59:01.951Z,21.80
2022-08-20T07:01:10.016Z,21.90
2022-08-20T07:03:14.941Z,22.00
2022-08-20T07:05:17.897Z,22.20
2022-08-20T07:07:21.277Z,22.40
2022-08-20T07:09:30.214Z,22.60
2022-08-20T07:11:35.124Z,22.50
2022-08-20T07:13:41.318Z,22.60
2022-08-20T07:15:44.772Z,22.60
2022-08-20T07:17:51.532Z,22.70
2022-08-20T07:19:54.545Z,22.70
2022-08-20T07:21:57.527Z,22.70
2022-08-20T07:24:00.845Z,22.60
2022-08-20T07:26:04.227Z,22.60
2022-08-20T07:28:09.937Z,22.70
2022-08-20T07:30:55.755Z,22.80
2022-08-20T07:32:59.130Z,22.90
2022-08-20T07:35:03.538Z,22.80
2022-08-20T07:37:06.677Z,22.80
2022-08-20T07:39:09.747Z,22.60
2022-08-20T07:41:14.886Z,22.70
2022-08-20T07:43:24.316Z,22.80
2022-08-20T07:45:28.917Z,22.70
2022-08-20T07:47:34.344Z,22.80
2022-08-20T07:49:39.380Z,22.80
2022-08-20T07:51:42.402Z,22.80
2022-08-20T07:53:46.628Z,23.00
2022-08-20T07:55:58.997Z,23.10
2022-08-20T07:58:09.688Z,23.40
2022-08-20T08:00:13.954Z,23.70
2022-08-20T08:02:18.344Z,23.90
2022-08-20T08:04:21.882Z,24.00
2022-08-20T08:06:28.955Z,23.90
2022-08-20T08:08:34.542Z,23.80
2022-08-20T08:10:37.922Z,23.80
2022-08-20T08:12:44.391Z,23.80
2022-08-20T08:14:49.431Z,23.80
2022-08-20T08:16:54.038Z,23.90
2022-08-20T08:18:58.485Z,24.00
2022-08-20T08:21:01.687Z,24.00
2022-08-20T08:23:04.849Z,24.10
2022-08-20T08:25:08.762Z,24.20
2022-08-20T08:27:12.266Z,24.30
2022-08-20T08:29:16.392Z,24.40
2022-08-20T08:31:19.515Z,24.40
2022-08-20T08:33:32.464Z,24.40
2022-08-20T08:35:38.736Z,24.40
2022-08-20T08:37:44.745Z,24.40
2022-08-20T08:39:47.871Z,24.50
2022-08-20T08:41:52.805Z,24.50
2022-08-20T08:43:58.024Z,24.50
2022-08-20T08:46:04.817Z,24.60
2022-08-20T08:48:08.042Z,24.60
2022-08-20T08:50:38.238Z,24.70
2022-08-20T08:52:47.237Z,24.90
2022-08-20T08:54:54.142Z,24.90
2022-08-20T08:56:57.263Z,24.90
2022-08-20T08:59:03.916Z,24.90
2022-08-20T09:01:53.052Z,24.80
2022-08-20T09:03:39.893Z,24.60
2022-08-20T09:05:48.111Z,24.30
2022-08-20T09:07:54.435Z,24.10
2022-08-20T09:09:57.636Z,23.90
2022-08-20T09:12:05.843Z,23.80
2022-08-20T09:14:08.924Z,23.90
2022-08-20T09:16:12.687Z,24.00
2022-08-20T09:18:16.076Z,24.10
2022-08-20T09:20:19.432Z,24.30
2022-08-20T09:22:25.489Z,24.50
2022-08-20T09:24:30.023Z,24.70
2022-08-20T09:26:35.397Z,25.00
2022-08-20T09:28:41.593Z,25.30
2022-08-20T09:30:44.669Z,25.50
2022-08-20T09:32:49.737Z,25.40
2022-08-20T09:34:56.810Z,25.40
2022-08-20T09:36:59.855Z,25.30
2022-08-20T09:39:03.507Z,25.20
2022-08-20T09:41:08.043Z,24.80
2022-08-20T09:43:11.030Z,24.50
2022-08-20T09:45:15.379Z,24.20
2022-08-20T09:47:19.203Z,24.00
2022-08-20T09:49:22.299Z,23.70
2022-08-20T09:51:25.293Z,23.70
2022-08-20T09:53:28.729Z,23.70
2022-08-20T09:55:39.095Z,23.80
2022-08-20T09:57:48.954Z,23.80
2022-08-20T09:59:57.034Z,23.80
2022-08-20T10:02:00.174Z,23.80
2022-08-20T10:04:03.255Z,23.60
2022-08-20T10:06:08.722Z,23.50
2022-08-20T10:08:14.148Z,23.50
2022-08-20T10:10:17.284Z,23.50
2022-08-20T10:12:20.465Z,23.40
2022-08-20T10:14:25.113Z,23.40
2022-08-20T10:16:28.178Z,23.40
2022-08-20T10:18:31.255Z,23.50
2022-08-20T10:20:34.996Z,23.50
2022-08-20T10:22:38.271Z,23.50
2022-08-20T10:24:41.288Z,23.60
2022-08-20T10:26:44.374Z,23.50
2022-08-20T10:28:47.456Z,23.50
2022-08-20T10:30:52.589Z,23.50
2022-08-20T10:32:55.573Z,23.40
2022-08-20T10:34:58.870Z,23.50
2022-08-20T10:37:01.697Z,23.50
2022-08-20T10:39:07.482Z,23.60
2022-08-20T10:41:12.137Z,23.60
2022-08-20T10:43:15.337Z,23.70
2022-08-20T10:45:19.830Z,23.80
2022-08-20T10:47:26.223Z,23.90
2022-08-20T10:49:34.909Z,24.00
2022-08-20T10:51:38.014Z,24.20
2022-08-20T10:53:41.742Z,24.50
2022-08-20T10:55:44.717Z,24.70
2022-08-20T10:57:50.743Z,24.80
2022-08-20T10:59:55.758Z,24.60
2022-08-20T11:01:58.848Z,24.60
2022-08-20T11:04:03.642Z,24.50
2022-08-20T11:06:06.981Z,24.50
2022-08-20T11:08:10.120Z,24.50
2022-08-20T11:10:14.063Z,24.60
2022-08-20T11:12:17.443Z,24.70
2022-08-20T11:14:21.370Z,25.00
2022-08-20T11:16:24.420Z,25.40
2022-08-20T11:18:27.423Z,25.70
2022-08-20T11:20:50.146Z,26.00
2022-08-20T11:22:53.763Z,26.10
2022-08-20T11:24:56.836Z,26.00
2022-08-20T11:26:59.717Z,25.90
2022-08-20T11:29:02.671Z,25.90
2022-08-20T11:31:05.768Z,26.00
2022-08-20T11:33:08.842Z,26.20
2022-08-20T11:35:41.102Z,25.90
2022-08-20T11:37:36.693Z,25.70
2022-08-20T11:39:41.811Z,25.70
2022-08-20T11:41:45.728Z,25.70
2022-08-20T11:44:10.538Z,25.70
2022-08-20T11:46:11.605Z,25.60
2022-08-20T11:48:14.522Z,25.50
2022-08-20T11:50:19.838Z,25.50
2022-08-20T11:52:23.563Z,25.50
2022-08-20T11:54:29.798Z,25.60
2022-08-20T11:56:33.112Z,25.70
2022-08-20T11:58:36.612Z,26.00
2022-08-20T12:00:39.795Z,26.20
2022-08-20T12:02:43.324Z,26.30
2022-08-20T12:04:46.529Z,26.60
2022-08-20T12:06:49.558Z,26.90
2022-08-20T12:08:54.667Z,26.90
2022-08-20T12:11:00.961Z,26.80
2022-08-20T12:13:04.694Z,26.60
2022-08-20T12:15:11.000Z,26.40
2022-08-20T12:17:17.716Z,26.30
2022-08-20T12:19:20.610Z,26.30
2022-08-20T12:21:23.477Z,26.50
2022-08-20T12:23:26.776Z,26.70
2022-08-20T12:25:30.019Z,26.80
2022-08-20T12:27:35.679Z,27.00
2022-08-20T12:29:39.528Z,27.20
2022-08-20T12:31:42.572Z,27.20
2022-08-20T12:33:45.763Z,27.20
2022-08-20T12:35:48.779Z,27.30
2022-08-20T12:37:52.201Z,27.10
2022-08-20T12:39:57.776Z,27.20
2022-08-20T12:42:02.751Z,27.30
2022-08-20T12:44:13.273Z,27.40
2022-08-20T12:46:16.365Z,27.40
2022-08-20T12:48:20.756Z,27.50
2022-08-20T12:50:29.687Z,27.60
2022-08-20T12:52:34.964Z,27.70
2022-08-20T12:54:37.944Z,27.80
2022-08-20T12:56:41.565Z,27.60
2022-08-20T12:58:45.788Z,27.40
2022-08-20T13:00:51.466Z,27.50
2022-08-20T13:02:56.254Z,27.60
2022-08-20T13:05:04.318Z,27.90
2022-08-20T13:07:08.012Z,28.00
2022-08-20T13:09:15.379Z,28.00
2022-08-20T13:11:18.467Z,28.00
2022-08-20T13:13:21.394Z,27.90
2022-08-20T13:15:25.960Z,27.70
2022-08-20T13:17:39.025Z,27.70
2022-08-20T13:19:45.024Z,27.70
2022-08-20T13:21:55.145Z,27.70
2022-08-20T13:23:58.172Z,27.70
2022-08-20T13:26:01.105Z,27.80
2022-08-20T13:28:05.943Z,28.00
2022-08-20T13:30:11.204Z,28.10
2022-08-20T13:32:14.140Z,28.20
2022-08-20T13:34:19.376Z,28.30
2022-08-20T13:36:22.269Z,28.30
2022-08-20T13:38:25.630Z,28.10
2022-08-20T13:40:28.730Z,28.20
2022-08-20T13:42:31.793Z,28.30
2022-08-20T13:44:34.823Z,28.40
2022-08-20T13:46:37.878Z,28.30
2022-08-20T13:48:43.852Z,28.20
2022-08-20T13:50:48.224Z,28.20
2022-08-20T13:52:51.397Z,28.20
2022-08-20T13:54:54.849Z,28.10
2022-08-20T13:57:05.858Z,28.10
2022-08-20T13:59:09.057Z,28.30
2022-08-20T14:01:15.806Z,28.50
2022-08-20T14:03:20.014Z,28.60
2022-08-20T14:05:28.497Z,28.40
2022-08-20T14:07:33.041Z,28.30
2022-08-20T14:09:39.101Z,28.20
2022-08-20T14:11:42.040Z,28.20
2022-08-20T14:13:44.874Z,28.20
2022-08-20T14:15:47.809Z,28.20
2022-08-20T14:17:52.786Z,28.20
2022-08-20T14:20:01.519Z,28.10
2022-08-20T14:22:04.873Z,28.20
2022-08-20T14:24:09.287Z,28.40
2022-08-20T14:26:12.325Z,28.40
2022-08-20T14:28:18.283Z,28.40
2022-08-20T14:30:23.894Z,28.50
2022-08-20T14:32:27.083Z,28.80
2022-08-20T14:34:29.981Z,28.80
2022-08-20T14:36:33.529Z,28.80
2022-08-20T14:38:37.562Z,29.10
2022-08-20T14:40:41.815Z,28.90
2022-08-20T14:42:47.729Z,29.10
2022-08-20T14:44:55.981Z,29.20
2022-08-20T14:47:10.329Z,29.10
2022-08-20T14:49:13.173Z,29.10
2022-08-20T14:51:16.082Z,29.10
2022-08-20T14:53:19.973Z,29.10
2022-08-20T14:55:26.758Z,29.20
2022-08-20T14:57:31.208Z,28.90
2022-08-20T14:59:34.634Z,28.60
2022-08-20T15:01:37.737Z,28.30
2022-08-20T15:03:40.696Z,28.30
2022-08-20T15:05:44.000Z,28.30
2022-08-20T15:07:51.746Z,28.40
2022-08-20T15:09:57.663Z,28.80
2022-08-20T15:12:00.547Z,29.00
2022-08-20T15:14:05.280Z,29.20
2022-08-20T15:16:08.936Z,29.50
2022-08-20T15:18:11.768Z,29.60
2022-08-20T15:20:20.653Z,29.80
2022-08-20T15:22:24.500Z,29.70
2022-08-20T15:24:28.089Z,29.80
2022-08-20T15:26:31.143Z,29.90
2022-08-20T15:28:34.521Z,30.10
2022-08-20T15:30:41.478Z,30.30
2022-08-20T15:32:44.642Z,30.10
2022-08-20T15:34:48.049Z,30.10
2022-08-20T15:36:50.976Z,30.10
2022-08-20T15:38:54.241Z,30.10
2022-08-20T15:40:57.248Z,30.10
2022-08-20T15:43:02.430Z,30.20
2022-08-20T15:45:08.842Z,30.10
2022-08-20T15:47:24.424Z,30.10
2022-08-20T15:49:27.432Z,30.20
2022-08-20T15:51:35.360Z,30.20
2022-08-20T15:53:48.115Z,30.40
2022-08-20T15:56:03.827Z,30.50
2022-08-20T15:58:15.441Z,30.40
2022-08-20T16:00:21.643Z,30.20
2022-08-20T16:02:47.472Z,29.90
2022-08-20T16:05:10.570Z,30.10
2022-08-20T16:07:22.237Z,30.40
2022-08-20T16:09:42.092Z,30.40
2022-08-20T16:11:53.357Z,30.60
2022-08-20T16:13:58.760Z,30.60
2022-08-20T16:16:03.447Z,30.40
2022-08-20T16:18:13.915Z,30.40
2022-08-20T16:20:23.125Z,30.50
2022-08-20T16:22:29.101Z,30.60
2022-08-20T16:24:32.701Z,30.70
2022-08-20T16:27:07.156Z,30.40
2022-08-20T16:29:13.572Z,30.50
2022-08-20T16:31:25.332Z,30.40
2022-08-20T16:33:32.886Z,30.40
2022-08-20T16:35:38.747Z,30.20
2022-08-20T16:37:46.404Z,30.20
2022-08-20T16:39:56.003Z,29.90
2022-08-20T16:41:59.190Z,29.80
2022-08-20T16:44:14.439Z,29.80
2022-08-20T16:46:19.823Z,29.70
2022-08-20T16:48:23.129Z,29.60
2022-08-20T16:50:35.905Z,29.80
2022-08-20T16:52:42.114Z,30.00
2022-08-20T16:54:45.851Z,30.20
2022-08-20T16:56:51.480Z,30.40
2022-08-20T16:58:56.332Z,30.30
2022-08-20T17:01:11.326Z,30.10
2022-08-20T17:03:31.578Z,30.10
2022-08-20T17:05:48.676Z,29.80
2022-08-20T17:07:54.496Z,29.70
2022-08-20T17:10:12.908Z,29.70
2022-08-20T17:12:18.415Z,29.70
2022-08-20T17:14:21.432Z,29.50
2022-08-20T17:16:24.305Z,29.30
2022-08-20T17:18:30.397Z,28.70
2022-08-20T17:20:45.981Z,28.00
2022-08-20T17:22:52.896Z,27.50
2022-08-20T17:24:56.302Z,27.00
2022-08-20T17:27:02.231Z,26.70
2022-08-20T17:29:13.809Z,26.50
2022-08-20T17:31:31.551Z,26.20
2022-08-20T17:33:42.090Z,26.10
2022-08-20T17:35:55.451Z,26.00
2022-08-20T17:38:00.614Z,25.90
2022-08-20T17:40:12.311Z,25.70
2022-08-20T17:42:18.991Z,25.70
2022-08-20T17:44:25.261Z,25.60
2022-08-20T17:46:30.178Z,25.50
2022-08-20T17:48:39.538Z,25.50
2022-08-20T17:50:44.467Z,25.40
2022-08-20T17:52:52.167Z,25.40
2022-08-20T17:54:55.734Z,25.30
2022-08-20T17:57:04.109Z,25.20
2022-08-20T17:59:12.157Z,25.20
2022-08-20T18:01:17.954Z,25.10
2022-08-20T18:03:24.066Z,25.00
2022-08-20T18:05:30.020Z,24.90
2022-08-20T18:07:41.809Z,24.80
2022-08-20T18:09:58.366Z,24.70
2022-08-20T18:12:32.945Z,24.60
2022-08-20T18:14:46.657Z,24.50
2022-08-20T18:17:04.852Z,24.50
2022-08-20T18:19:15.174Z,24.40
2022-08-20T18:21:54.617Z,24.20
2022-08-20T18:24:02.400Z,24.10
2022-08-20T18:26:11.329Z,24.10
2022-08-20T18:28:19.832Z,24.00
2022-08-20T18:30:25.694Z,23.90
2022-08-20T18:32:32.248Z,23.80
2022-08-20T18:34:39.172Z,23.80
2022-08-20T18:36:42.327Z,23.70
2022-08-20T18:38:58.433Z,23.60
2022-08-20T18:41:11.649Z,23.50
2022-08-20T18:43:16.392Z,23.40
2022-08-20T18:45:30.326Z,23.30
2022-08-20T18:47:43.519Z,23.30
2022-08-20T18:49:59.628Z,23.20
2022-08-20T18:52:13.631Z,23.10
2022-08-20T18:54:24.971Z,23.00
2022-08-20T18:56:38.892Z,23.00
2022-08-20T18:58:55.472Z,22.90
2022-08-20T19:01:01.063Z,22.80
2022-08-20T19:03:15.168Z,22.70
2022-08-20T19:05:27.652Z,22.70
2022-08-20T19:07:47.973Z,22.60
2022-08-20T19:10:28.301Z,22.50
2022-08-20T19:12:54.580Z,22.40
2022-08-20T19:15:02.311Z,22.40
2022-08-20T19:17:10.191Z,22.30
2022-08-20T19:19:16.529Z,22.20
2022-08-20T19:21:24.368Z,22.10
2022-08-20T19:23:30.564Z,22.10
2022-08-20T19:25:36.426Z,22.00
2022-08-20T19:27:41.054Z,21.90
2022-08-20T19:29:49.899Z,21.90
2022-08-20T19:32:01.897Z,21.80
2022-08-20T19:34:15.003Z,21.70
2022-08-20T19:36:28.288Z,21.70
2022-08-20T19:38:31.650Z,21.60
2022-08-20T19:40:39.257Z,21.60
2022-08-20T19:42:47.838Z,21.50
2022-08-20T19:44:54.846Z,21.50
2022-08-20T19:46:59.496Z,21.40
2022-08-20T19:49:19.272Z,21.40
2022-08-20T19:51:31.599Z,21.40
2022-08-20T19:53:36.338Z,21.40
2022-08-20T19:55:40.800Z,21.30
2022-08-20T19:57:53.222Z,21.30
2022-08-20T19:59:59.055Z,21.30
2022-08-20T20:02:19.921Z,21.20
2022-08-20T20:04:28.012Z,21.20
2022-08-20T20:06:37.931Z,21.20
2022-08-20T20:08:44.288Z,21.10
2022-08-20T20:10:53.867Z,21.10
2022-08-20T20:13:00.378Z,21.10
2022-08-20T20:15:04.016Z,21.10
2022-08-20T20:17:09.950Z,21.10
2022-08-20T20:19:27.492Z,21.10
2022-08-20T20:21:38.847Z,21.00
2022-08-20T20:23:46.748Z,21.00
2022-08-20T20:25:55.608Z,20.90
2022-08-20T20:28:09.974Z,20.90
2022-08-20T20:30:14.557Z,20.80
2022-08-20T20:32:22.535Z,20.80
2022-08-20T20:34:30.277Z,20.80
2022-08-20T20:36:36.842Z,20.80
2022-08-20T20:38:58.233Z,20.70
2022-08-20T20:41:04.434Z,20.70
2022-08-20T20:43:14.974Z,20.70
2022-08-20T20:45:19.918Z,20.60
2022-08-20T20:47:27.088Z,20.60
2022-08-20T20:49:33.325Z,20.60
2022-08-20T20:51:40.316Z,20.50
2022-08-20T20:53:54.285Z,20.50
2022-08-20T20:56:01.388Z,20.50
2022-08-20T20:58:05.325Z,20.40
2022-08-20T21:00:13.387Z,20.40
2022-08-20T21:02:17.483Z,20.40
2022-08-20T21:04:25.780Z,20.30
2022-08-20T21:06:30.042Z,20.30
2022-08-20T21:08:33.940Z,20.20
2022-08-20T21:10:41.217Z,20.20
2022-08-20T21:12:50.461Z,20.20
2022-08-20T21:14:55.844Z,20.20
2022-08-20T21:17:02.739Z,20.20
2022-08-20T21:19:09.928Z,20.10
2022-08-20T21:21:13.216Z,20.10
2022-08-20T21:23:16.177Z,20.10
2022-08-20T21:25:20.295Z,20.10
2022-08-20T21:27:25.872Z,20.20
2022-08-20T21:29:32.767Z,20.20
2022-08-20T21:31:44.448Z,20.20
2022-08-20T21:33:50.704Z,20.30
2022-08-20T21:35:53.632Z,20.20
2022-08-20T21:37:56.731Z,20.20
2022-08-20T21:40:07.658Z,20.20
2022-08-20T21:42:28.351Z,20.10
2022-08-20T21:44:33.359Z,20.10
2022-08-20T21:46:36.357Z,20.10
2022-08-20T21:48:40.306Z,20.10
2022-08-20T21:50:45.195Z,20.00
2022-08-20T21:52:55.508Z,20.00
2022-08-20T21:55:07.327Z,20.00
2022-08-20T21:57:15.369Z,19.90
2022-08-20T21:59:20.786Z,19.90
2022-08-20T22:01:24.081Z,19.90
2022-08-20T22:03:31.546Z,19.90
2022-08-20T22:05:39.144Z,19.80
2022-08-20T22:07:44.397Z,19.80
2022-08-20T22:09:47.803Z,19.70
2022-08-20T22:11:54.663Z,19.70
2022-08-20T22:13:59.679Z,19.60
2022-08-20T22:16:07.781Z,19.50
2022-08-20T22:18:10.896Z,19.40
2022-08-20T22:20:14.453Z,19.40
2022-08-20T22:22:17.783Z,19.40
2022-08-20T22:24:22.419Z,19.40
2022-08-20T22:26:27.273Z,19.40
2022-08-20T22:28:30.481Z,19.40
2022-08-20T22:30:33.725Z,19.50
2022-08-20T22:32:51.585Z,19.50
2022-08-20T22:34:55.206Z,19.60
2022-08-20T22:36:59.517Z,19.70
2022-08-20T22:39:03.051Z,19.70
2022-08-20T22:41:10.295Z,19.80
2022-08-20T22:43:14.083Z,19.90
2022-08-20T22:45:17.193Z,19.90
2022-08-20T22:47:27.432Z,19.90
2022-08-20T22:49:33.147Z,19.80
2022-08-20T22:51:40.096Z,19.80
2022-08-20T22:53:45.323Z,19.80
2022-08-20T22:55:48.925Z,19.70
2022-08-20T22:57:53.295Z,19.60
2022-08-20T22:59:56.764Z,19.50
2022-08-20T23:02:07.951Z,19.50
2022-08-20T23:04:16.532Z,19.40
2022-08-20T23:06:20.138Z,19.30
2022-08-20T23:08:23.289Z,19.30
2022-08-20T23:10:32.867Z,19.20
2022-08-20T23:12:35.810Z,19.20
2022-08-20T23:14:40.215Z,19.20
2022-08-20T23:16:45.208Z,19.10
2022-08-20T23:18:48.325Z,19.10
2022-08-20T23:20:53.598Z,19.10
2022-08-20T23:22:56.723Z,19.10
2022-08-20T23:25:00.647Z,19.00
2022-08-20T23:27:05.553Z,19.00
2022-08-20T23:29:08.622Z,19.00
2022-08-20T23:31:12.976Z,19.00
2022-08-20T23:33:16.242Z,18.90
2022-08-20T23:35:19.515Z,18.90
2022-08-20T23:37:22.519Z,18.80
2022-08-20T23:39:26.185Z,18.80
2022-08-20T23:41:29.572Z,18.80
2022-08-20T23:43:33.104Z,18.70
2022-08-20T23:45:39.754Z,18.70
2022-08-20T23:47:44.867Z,18.60
2022-08-20T23:49:48.288Z,18.60
2022-08-20T23:51:51.220Z,18.60
2022-08-20T23:53:54.118Z,18.50
2022-08-20T23:55:57.185Z,18.40
2022-08-20T23:58:00.172Z,18.40
